createdAt,value
2023-05-05T00:01:22.860Z,3.33
2023-05-05T00:03:51.116Z,3.50
2023-05-05T00:06:19.369Z,3.50
2023-05-05T00:08:51.505Z,3.50
2023-05-05T00:11:19.691Z,3.57
2023-05-05T00:13:48.346Z,3.23
2023-05-05T00:16:16.467Z,3.30
2023-05-05T00:18:45.449Z,3.30
2023-05-05T00:21:14.234Z,3.03
2023-05-05T00:23:42.428Z,3.27
2023-05-05T00:26:11.870Z,3.40
2023-05-05T00:28:40.583Z,2.90
2023-05-05T00:31:08.826Z,3.07
2023-05-05T00:33:37.050Z,2.70
2023-05-05T00:36:05.556Z,2.70
2023-05-05T00:38:33.814Z,2.57
2023-05-05T00:41:01.901Z,2.73
2023-05-05T00:43:31.368Z,2.57
2023-05-05T00:46:05.468Z,2.70
2023-05-05T00:48:34.410Z,2.57
2023-05-05T00:51:02.646Z,2.77
2023-05-05T00:53:30.944Z,2.67
2023-05-05T00:55:59.496Z,3.00
2023-05-05T00:58:28.791Z,3.03
2023-05-05T01:00:58.230Z,2.80
2023-05-05T01:03:26.703Z,3.50
2023-05-05T01:06:10.088Z,2.77
2023-05-05T01:08:52.301Z,2.97
2023-05-05T01:11:32.035Z,3.07
2023-05-05T01:14:13.756Z,3.20
2023-05-05T01:16:57.155Z,2.43
2023-05-05T01:20:03.910Z,3.13
2023-05-05T01:22:42.488Z,2.80
2023-05-05T01:26:22.086Z,3.03
2023-05-05T01:29:17.703Z,3.30
2023-05-05T01:31:53.328Z,2.70
2023-05-05T01:34:28.612Z,3.27
2023-05-05T01:37:11.084Z,3.27
2023-05-05T01:39:42.254Z,3.23
2023-05-05T01:42:14.926Z,2.77
2023-05-05T01:44:45.115Z,2.87
2023-05-05T01:47:19.617Z,3.10
2023-05-05T01:49:51.226Z,2.83
2023-05-05T01:52:20.815Z,2.77
2023-05-05T01:54:51.502Z,3.13
2023-05-05T01:57:22.033Z,3.13
2023-05-05T01:59:54.025Z,3.37
2023-05-05T02:02:26.955Z,2.90
2023-05-05T02:04:58.334Z,2.60
2023-05-05T02:07:28.497Z,2.93
2023-05-05T02:09:57.732Z,3.40
2023-05-05T02:12:27.553Z,2.87
2023-05-05T02:15:00.722Z,2.73
2023-05-05T02:17:32.176Z,3.23
2023-05-05T02:20:02.929Z,3.13
2023-05-05T02:22:34.031Z,3.20
2023-05-05T02:25:03.209Z,2.60
2023-05-05T02:27:35.823Z,2.50
2023-05-05T02:30:11.109Z,2.93
2023-05-05T02:32:45.949Z,3.07
2023-05-05T02:35:20.634Z,2.90
2023-05-05T02:37:59.947Z,3.20
2023-05-05T02:40:34.931Z,2.97
2023-05-05T02:43:10.860Z,2.70
2023-05-05T02:45:39.809Z,3.23
2023-05-05T02:48:10.589Z,2.73
2023-05-05T02:50:40.305Z,2.80
2023-05-05T02:53:31.548Z,3.80
2023-05-05T02:56:15.529Z,3.20
2023-05-05T02:58:55.452Z,3.50
2023-05-05T03:01:39.909Z,3.73
2023-05-05T03:04:18.272Z,4.00
2023-05-05T03:06:56.955Z,4.23
2023-05-05T03:09:34.505Z,4.97
2023-05-05T03:12:06.426Z,4.50
2023-05-05T03:14:46.806Z,5.33
2023-05-05T03:17:20.626Z,5.00
2023-05-05T03:19:51.895Z,3.97
2023-05-05T03:22:21.085Z,4.10
2023-05-05T03:24:51.618Z,4.33
2023-05-05T03:27:23.604Z,3.73
2023-05-05T03:29:52.853Z,3.83
2023-05-05T03:32:23.495Z,3.93
2023-05-05T03:34:55.704Z,4.47
2023-05-05T03:37:28.733Z,4.40
2023-05-05T03:39:56.919Z,4.30
2023-05-05T03:42:25.218Z,4.03
2023-05-05T03:44:54.242Z,4.30
2023-05-05T03:47:24.635Z,4.80
2023-05-05T03:49:55.151Z,4.83
2023-05-05T03:52:23.312Z,4.23
2023-05-05T03:54:51.466Z,4.63
2023-05-05T03:57:20.416Z,4.43
2023-05-05T03:59:48.544Z,4.40
2023-05-05T04:02:18.932Z,4.23
2023-05-05T04:04:47.970Z,4.30
2023-05-05T04:07:17.502Z,4.23
2023-05-05T04:09:46.156Z,4.27
2023-05-05T04:12:14.987Z,4.20
2023-05-05T04:14:43.503Z,3.87
2023-05-05T04:17:12.289Z,4.07
2023-05-05T04:19:40.547Z,3.83
2023-05-05T04:22:09.746Z,3.93
2023-05-05T04:24:39.238Z,3.40
2023-05-05T04:27:07.382Z,3.47
2023-05-05T04:29:36.079Z,3.73
2023-05-05T04:32:04.908Z,3.60
2023-05-05T04:34:33.238Z,4.03
2023-05-05T04:37:01.933Z,3.27
2023-05-05T04:39:31.335Z,3.57
2023-05-05T04:42:02.176Z,3.63
2023-05-05T04:44:30.541Z,3.90
2023-05-05T04:46:58.839Z,3.83
2023-05-05T04:49:27.070Z,3.70
2023-05-05T04:51:55.148Z,3.60
2023-05-05T04:54:23.645Z,4.50
2023-05-05T04:56:51.806Z,4.60
2023-05-05T04:59:21.282Z,3.93
2023-05-05T05:01:49.449Z,3.60
2023-05-05T05:04:18.486Z,3.60
2023-05-05T05:06:46.941Z,3.67
2023-05-05T05:09:15.361Z,4.37
2023-05-05T05:11:43.523Z,3.53
2023-05-05T05:14:11.737Z,4.18
2023-05-05T05:16:41.308Z,3.77
2023-05-05T05:19:10.025Z,3.50
2023-05-05T05:21:38.699Z,4.00
2023-05-05T05:24:07.108Z,4.27
2023-05-05T05:26:35.456Z,3.87
2023-05-05T05:29:05.910Z,3.67
2023-05-05T05:31:34.445Z,3.57
2023-05-05T05:34:04.231Z,4.03
2023-05-05T05:36:32.711Z,3.60
2023-05-05T05:39:00.939Z,3.63
2023-05-05T05:41:30.143Z,3.50
2023-05-05T05:44:01.267Z,3.40
2023-05-05T05:46:30.351Z,3.33
2023-05-05T05:48:59.073Z,3.60
2023-05-05T05:51:28.826Z,3.30
2023-05-05T05:53:58.683Z,3.78
2023-05-05T05:56:27.163Z,3.28
2023-05-05T05:58:55.466Z,2.90
2023-05-05T06:01:24.434Z,2.38
2023-05-05T06:03:52.917Z,2.80
2023-05-05T06:06:21.722Z,3.05
2023-05-05T06:08:51.301Z,2.85
2023-05-05T06:11:19.474Z,2.60
2023-05-05T06:13:47.744Z,2.50
2023-05-05T06:16:16.204Z,2.60
2023-05-05T06:18:46.575Z,2.90
2023-05-05T06:21:14.960Z,2.50
2023-05-05T06:23:43.202Z,2.78
2023-05-05T06:26:12.693Z,3.17
2023-05-05T06:28:41.397Z,2.72
2023-05-05T06:31:09.622Z,2.60
2023-05-05T06:33:37.717Z,2.78
2023-05-05T06:36:07.507Z,2.95
2023-05-05T06:38:35.696Z,2.88
2023-05-05T06:41:03.898Z,2.90
2023-05-05T06:43:33.422Z,3.08
2023-05-05T06:46:07.507Z,2.60
2023-05-05T06:48:35.889Z,2.42
2023-05-05T06:51:04.316Z,2.85
2023-05-05T06:53:32.508Z,2.30
2023-05-05T06:56:00.696Z,3.10
2023-05-05T06:58:28.816Z,3.00
2023-05-05T07:00:58.364Z,3.60
2023-05-05T07:03:27.964Z,2.70
2023-05-05T07:05:56.498Z,3.33
2023-05-05T07:08:26.160Z,3.03
2023-05-05T07:10:54.386Z,3.20
2023-05-05T07:13:22.579Z,3.00
2023-05-05T07:15:50.926Z,2.95
2023-05-05T07:18:21.310Z,3.17
2023-05-05T07:20:50.265Z,2.75
2023-05-05T07:23:18.358Z,3.17
2023-05-05T07:25:46.597Z,3.38
2023-05-05T07:28:15.373Z,3.55
2023-05-05T07:30:43.790Z,3.55
2023-05-05T07:33:12.196Z,3.40
2023-05-05T07:35:41.988Z,3.20
2023-05-05T07:38:10.950Z,3.53
2023-05-05T07:40:39.471Z,3.08
2023-05-05T07:43:07.814Z,3.15
2023-05-05T07:45:36.038Z,3.30
2023-05-05T07:48:04.543Z,3.63
2023-05-05T07:50:32.730Z,3.17
2023-05-05T07:53:10.849Z,3.38
2023-05-05T07:55:43.011Z,3.20
2023-05-05T07:58:11.829Z,3.72
2023-05-05T08:00:40.867Z,4.15
2023-05-05T08:03:11.656Z,3.58
2023-05-05T08:05:40.627Z,4.00
2023-05-05T08:08:10.194Z,3.38
2023-05-05T08:10:38.321Z,4.10
2023-05-05T08:13:06.514Z,4.18
2023-05-05T08:15:34.623Z,3.90
2023-05-05T08:18:02.854Z,3.63
2023-05-05T08:20:31.291Z,3.80
2023-05-05T08:23:00.332Z,4.97
2023-05-05T08:25:29.771Z,4.88
2023-05-05T08:27:57.914Z,4.68
2023-05-05T08:30:26.147Z,4.22
2023-05-05T08:32:54.297Z,4.15
2023-05-05T08:35:23.438Z,3.83
2023-05-05T08:37:52.194Z,3.85
2023-05-05T08:40:24.981Z,4.97
2023-05-05T08:42:55.200Z,4.47
2023-05-05T08:45:23.384Z,5.30
2023-05-05T08:47:51.587Z,4.22
2023-05-05T08:50:23.861Z,4.25
2023-05-05T08:53:06.056Z,4.10
2023-05-05T08:55:39.459Z,4.35
2023-05-05T08:58:11.527Z,4.45
2023-05-05T09:00:42.651Z,4.15
2023-05-05T09:03:12.695Z,4.03
2023-05-05T09:05:43.436Z,4.28
2023-05-05T09:08:12.669Z,4.03
2023-05-05T09:10:42.695Z,3.97
2023-05-05T09:13:13.077Z,4.45
2023-05-05T09:15:42.116Z,4.70
2023-05-05T09:18:12.111Z,4.18
2023-05-05T09:20:42.199Z,4.70
2023-05-05T09:23:12.555Z,4.55
2023-05-05T09:25:41.418Z,4.30
2023-05-05T09:28:13.604Z,4.13
2023-05-05T09:30:44.278Z,5.00
2023-05-05T09:33:13.653Z,5.25
2023-05-05T09:35:53.328Z,4.80
2023-05-05T09:38:23.804Z,4.20
2023-05-05T09:40:54.274Z,4.00
2023-05-05T09:43:25.023Z,4.90
2023-05-05T09:46:06.085Z,5.07
2023-05-05T09:48:34.571Z,5.80
2023-05-05T09:51:02.899Z,4.30
2023-05-05T09:53:40.689Z,5.20
2023-05-05T09:56:10.294Z,5.10
2023-05-05T09:58:39.880Z,5.38
2023-05-05T10:01:23.590Z,4.80
2023-05-05T10:03:53.024Z,5.13
2023-05-05T10:06:21.989Z,4.57
2023-05-05T10:09:02.666Z,5.93
2023-05-05T10:11:31.645Z,4.82
2023-05-05T10:14:01.600Z,4.95
2023-05-05T10:16:34.420Z,5.47
2023-05-05T10:19:04.934Z,5.20
2023-05-05T10:21:41.474Z,5.65
2023-05-05T10:24:18.662Z,6.18
2023-05-05T10:26:49.067Z,5.40
2023-05-05T10:29:46.679Z,5.88
2023-05-05T10:32:53.221Z,5.22
2023-05-05T10:35:21.648Z,5.20
2023-05-05T10:37:50.545Z,5.75
2023-05-05T10:40:18.906Z,6.20
2023-05-05T10:42:48.200Z,5.55
2023-05-05T10:45:18.077Z,5.75
2023-05-05T10:47:46.615Z,5.82
2023-05-05T10:50:26.373Z,5.38
2023-05-05T10:53:11.974Z,5.43
2023-05-05T10:55:47.292Z,5.22
2023-05-05T10:58:40.798Z,5.60
2023-05-05T11:01:33.376Z,5.72
2023-05-05T11:04:22.046Z,5.63
2023-05-05T11:07:24.302Z,5.95
2023-05-05T11:09:58.289Z,5.88
2023-05-05T11:12:26.554Z,5.93
2023-05-05T11:15:37.755Z,5.47
2023-05-05T11:18:08.563Z,6.38
2023-05-05T11:21:15.395Z,5.97
2023-05-05T11:23:49.353Z,5.32
2023-05-05T11:26:19.663Z,5.95
2023-05-05T11:29:05.538Z,7.00
2023-05-05T11:31:33.918Z,6.43
2023-05-05T11:34:29.302Z,5.43
2023-05-05T11:37:03.869Z,5.82
2023-05-05T11:39:49.406Z,5.70
2023-05-05T11:42:27.685Z,5.47
2023-05-05T11:44:56.190Z,6.10
2023-05-05T11:47:34.252Z,5.68
2023-05-05T11:50:21.677Z,6.78
2023-05-05T11:52:50.423Z,5.40
2023-05-05T11:55:23.255Z,5.20
2023-05-05T11:57:51.774Z,4.65
2023-05-05T12:00:20.835Z,4.38
2023-05-05T12:02:58.459Z,4.60
2023-05-05T12:05:28.301Z,4.70
2023-05-05T12:07:59.830Z,3.78
2023-05-05T12:10:29.116Z,4.47
2023-05-05T12:12:57.425Z,5.90
2023-05-05T12:15:33.077Z,5.28
2023-05-05T12:18:02.944Z,3.90
2023-05-05T12:20:35.065Z,5.82
2023-05-05T12:23:04.892Z,4.55
2023-05-05T12:25:39.066Z,3.53
2023-05-05T12:28:09.107Z,2.92
2023-05-05T12:30:37.787Z,2.92
2023-05-05T12:33:08.631Z,2.58
2023-05-05T12:35:38.749Z,2.72
2023-05-05T12:38:06.980Z,2.78
2023-05-05T12:40:49.973Z,2.88
2023-05-05T12:43:29.817Z,2.28
2023-05-05T12:46:16.117Z,2.47
2023-05-05T12:48:47.182Z,3.05
2023-05-05T12:51:20.502Z,3.40
2023-05-05T12:53:50.701Z,2.78
2023-05-05T12:56:36.516Z,3.35
2023-05-05T12:59:07.435Z,3.42
2023-05-05T13:01:36.594Z,3.17
2023-05-05T13:04:12.751Z,2.17
2023-05-05T13:06:44.817Z,3.10
2023-05-05T13:09:24.886Z,3.05
2023-05-05T13:11:54.415Z,3.22
2023-05-05T13:14:23.038Z,3.03
2023-05-05T13:16:51.277Z,3.50
2023-05-05T13:19:19.411Z,3.20
2023-05-05T13:21:49.116Z,3.33
2023-05-05T13:26:48.359Z,3.40
2023-05-05T13:29:17.345Z,3.38
2023-05-05T13:31:46.452Z,3.83
2023-05-05T13:34:14.640Z,4.43
2023-05-05T13:36:42.744Z,4.30
2023-05-05T13:39:12.510Z,4.07
2023-05-05T13:41:40.799Z,4.45
2023-05-05T13:44:08.961Z,4.10
2023-05-05T13:46:37.184Z,4.18
2023-05-05T13:49:05.423Z,4.57
2023-05-05T13:51:34.654Z,3.65
2023-05-05T13:54:03.228Z,3.60
2023-05-05T13:56:32.776Z,4.50
2023-05-05T13:59:02.319Z,4.57
2023-05-05T14:01:31.325Z,3.75
2023-05-05T14:04:00.108Z,3.88
2023-05-05T14:06:29.666Z,4.38
2023-05-05T14:08:57.745Z,4.63
2023-05-05T14:11:25.927Z,3.80
2023-05-05T14:13:55.462Z,3.90
2023-05-05T14:16:23.680Z,3.80
2023-05-05T14:18:51.919Z,4.07
2023-05-05T14:21:20.237Z,4.15
2023-05-05T14:23:48.588Z,3.55
2023-05-05T14:26:16.748Z,4.25
2023-05-05T14:28:46.754Z,3.63
2023-05-05T14:31:18.391Z,4.47
2023-05-05T14:33:46.562Z,4.38
2023-05-05T14:36:15.158Z,4.43
2023-05-05T14:38:43.501Z,3.70
2023-05-05T14:41:11.728Z,4.38
2023-05-05T14:43:39.854Z,4.90
2023-05-05T14:46:08.196Z,5.55
2023-05-05T14:48:37.733Z,5.15
2023-05-05T14:51:06.100Z,6.50
2023-05-05T14:53:35.721Z,5.03
2023-05-05T14:56:04.053Z,4.28
2023-05-05T14:58:32.251Z,4.80
2023-05-05T15:01:00.849Z,4.88
2023-05-05T15:03:29.133Z,4.43
2023-05-05T15:05:59.518Z,4.85
2023-05-05T15:08:27.753Z,4.45
2023-05-05T15:10:55.896Z,4.57
2023-05-05T15:13:24.052Z,4.68
2023-05-05T15:15:52.191Z,5.00
2023-05-05T15:18:20.421Z,5.85
2023-05-05T15:20:48.664Z,6.00
2023-05-05T15:23:18.181Z,5.80
2023-05-05T15:25:46.321Z,5.63
2023-05-05T15:28:14.467Z,5.15
2023-05-05T15:30:42.791Z,5.63
2023-05-05T15:33:11.046Z,5.57
2023-05-05T15:35:39.214Z,5.30
2023-05-05T15:38:07.420Z,4.55
2023-05-05T15:40:36.931Z,5.35
2023-05-05T15:43:05.045Z,5.15
2023-05-05T15:45:33.499Z,4.30
2023-05-05T15:48:01.864Z,4.18
2023-05-05T15:50:30.025Z,4.88
2023-05-05T15:54:14.748Z,4.97
2023-05-05T15:56:44.665Z,4.53
2023-05-05T15:59:12.855Z,4.60
2023-05-05T16:01:41.081Z,4.93
2023-05-05T16:04:09.384Z,4.45
2023-05-05T16:06:37.537Z,5.03
2023-05-05T16:09:05.695Z,4.60
2023-05-05T16:11:33.932Z,4.70
2023-05-05T16:14:03.689Z,4.63
2023-05-05T16:16:31.922Z,4.20
2023-05-05T16:19:00.304Z,4.35
2023-05-05T16:21:28.759Z,4.78
2023-05-05T16:23:57.297Z,5.30
2023-05-05T16:26:25.501Z,4.72
2023-05-05T16:28:53.648Z,5.15
2023-05-05T16:31:23.306Z,4.28
2023-05-05T16:33:51.768Z,4.38
2023-05-05T16:36:20.725Z,4.70
2023-05-05T16:38:48.849Z,4.55
2023-05-05T16:41:16.984Z,4.78
2023-05-05T16:43:45.267Z,4.63
2023-05-05T16:46:13.655Z,4.70
2023-05-05T16:48:43.187Z,4.60
2023-05-05T16:51:11.464Z,4.68
2023-05-05T16:53:39.968Z,4.82
2023-05-05T16:56:08.738Z,4.10
2023-05-05T16:58:37.087Z,4.18
2023-05-05T17:01:05.580Z,5.00
2023-05-05T17:03:33.736Z,5.20
2023-05-05T17:06:03.456Z,5.97
2023-05-05T17:08:31.638Z,5.90
2023-05-05T17:10:59.853Z,6.40
2023-05-05T17:13:28.004Z,6.72
2023-05-05T17:15:56.583Z,6.28
2023-05-05T17:18:25.835Z,6.72
2023-05-05T17:20:54.057Z,6.45
2023-05-05T17:23:23.669Z,6.65
2023-05-05T17:25:51.769Z,6.68
2023-05-05T17:28:19.983Z,6.75
2023-05-05T17:30:48.134Z,6.32
2023-05-05T17:33:20.763Z,6.18
2023-05-05T17:35:49.085Z,5.72
2023-05-05T17:38:17.527Z,5.65
2023-05-05T17:40:47.199Z,6.00
2023-05-05T17:43:15.384Z,5.45
2023-05-05T17:45:43.588Z,6.25
2023-05-05T17:48:11.729Z,6.10
2023-05-05T17:50:41.365Z,6.20
2023-05-05T17:53:11.800Z,6.60
2023-05-05T17:55:40.054Z,5.97
2023-05-05T17:58:09.619Z,6.40
2023-05-05T18:00:37.918Z,6.32
2023-05-05T18:03:06.338Z,5.53
2023-05-05T18:05:35.067Z,7.18
2023-05-05T18:08:03.229Z,5.78
2023-05-05T18:10:31.415Z,6.18
2023-05-05T18:12:59.566Z,6.18
2023-05-05T18:15:30.461Z,6.57
2023-05-05T18:17:58.709Z,6.53
2023-05-05T18:20:26.988Z,6.78
2023-05-05T18:22:55.494Z,6.65
2023-05-05T18:25:24.334Z,6.78
2023-05-05T18:27:52.549Z,7.50
2023-05-05T18:30:20.786Z,6.82
2023-05-05T18:32:50.407Z,7.90
2023-05-05T18:35:18.962Z,6.45
2023-05-05T18:37:47.152Z,7.18
2023-05-05T18:40:15.735Z,6.75
2023-05-05T18:42:44.439Z,8.27
2023-05-05T18:45:13.035Z,8.90
2023-05-05T18:47:41.532Z,20.00
2023-05-05T18:50:12.307Z,11.63
2023-05-05T18:52:40.607Z,11.32
2023-05-05T18:55:09.788Z,11.07
2023-05-05T18:57:38.492Z,10.45
2023-05-05T19:00:08.646Z,9.98
2023-05-05T19:02:36.904Z,9.88
2023-05-05T19:05:06.001Z,9.13
2023-05-05T19:07:36.036Z,10.20
2023-05-05T19:10:06.405Z,10.30
2023-05-05T19:12:35.158Z,9.73
2023-05-05T19:15:03.439Z,10.75
2023-05-05T19:17:31.661Z,9.98
2023-05-05T19:20:00.014Z,9.68
2023-05-05T19:22:28.204Z,9.45
2023-05-05T19:24:57.829Z,9.00
2023-05-05T19:27:26.065Z,10.43
2023-05-05T19:29:54.334Z,4.60
2023-05-05T19:32:22.851Z,4.43
2023-05-05T19:34:54.172Z,3.42
2023-05-05T19:37:22.400Z,2.88
2023-05-05T19:39:51.640Z,2.83
2023-05-05T19:42:21.282Z,2.60
2023-05-05T19:44:49.458Z,3.97
2023-05-05T19:47:17.986Z,3.35
2023-05-05T19:49:46.201Z,4.07
2023-05-05T19:52:14.450Z,11.80
2023-05-05T19:54:43.375Z,4.03
2023-05-05T19:57:11.671Z,3.17
2023-05-05T19:59:41.672Z,3.35
2023-05-05T20:02:11.470Z,4.00
2023-05-05T20:04:39.783Z,2.72
2023-05-05T20:07:07.989Z,2.88
2023-05-05T20:09:37.624Z,3.22
2023-05-05T20:12:07.060Z,3.55
2023-05-05T20:14:35.615Z,4.38
2023-05-05T20:17:05.160Z,3.72
2023-05-05T20:19:33.428Z,4.20
2023-05-05T20:22:01.656Z,4.85
2023-05-05T20:24:29.979Z,3.63
2023-05-05T20:26:58.485Z,3.40
2023-05-05T20:29:26.761Z,4.20
2023-05-05T20:31:55.457Z,4.05
2023-05-05T20:34:27.386Z,3.80
2023-05-05T20:36:56.382Z,3.40
2023-05-05T20:39:25.083Z,3.33
2023-05-05T20:41:54.238Z,3.45
2023-05-05T20:44:23.758Z,3.97
2023-05-05T20:46:52.201Z,3.60
2023-05-05T20:49:20.626Z,3.58
2023-05-05T20:51:50.606Z,3.75
2023-05-05T20:54:19.097Z,3.72
2023-05-05T20:56:47.469Z,3.05
2023-05-05T20:59:16.194Z,3.45
2023-05-05T21:01:45.117Z,2.83
2023-05-05T21:04:13.955Z,3.20
2023-05-05T21:06:42.396Z,3.13
2023-05-05T21:09:12.597Z,3.22
2023-05-05T21:11:41.043Z,3.42
2023-05-05T21:14:10.694Z,3.67
2023-05-05T21:16:39.736Z,3.70
2023-05-05T21:19:08.266Z,3.13
2023-05-05T21:21:36.868Z,3.55
2023-05-05T21:24:07.790Z,3.45
2023-05-05T21:26:37.937Z,3.50
2023-05-05T21:29:06.895Z,2.90
2023-05-05T21:31:35.551Z,3.47
2023-05-05T21:34:04.113Z,3.85
2023-05-05T21:36:34.200Z,4.25
2023-05-05T21:39:02.434Z,4.80
2023-05-05T21:41:31.014Z,5.13
2023-05-05T21:44:01.121Z,4.32
2023-05-05T21:46:29.444Z,4.70
2023-05-05T21:48:58.209Z,4.38
2023-05-05T21:51:27.383Z,3.92
2023-05-05T21:53:55.993Z,4.80
2023-05-05T21:56:24.234Z,4.53
2023-05-05T21:58:52.900Z,4.30
2023-05-05T22:01:22.705Z,4.45
2023-05-05T22:03:51.358Z,5.28
2023-05-05T22:06:20.509Z,4.50
2023-05-05T22:08:49.633Z,4.57
2023-05-05T22:11:19.447Z,4.50
2023-05-05T22:13:47.970Z,3.95
2023-05-05T22:16:17.587Z,4.45
2023-05-05T22:18:47.392Z,4.32
2023-05-05T22:21:16.262Z,4.53
2023-05-05T22:23:44.702Z,5.70
2023-05-05T22:26:13.537Z,5.65
2023-05-05T22:28:41.668Z,5.68
2023-05-05T22:31:10.108Z,5.28
2023-05-05T22:33:38.704Z,4.70
2023-05-05T22:36:10.340Z,4.80
2023-05-05T22:38:39.243Z,4.97
2023-05-05T22:41:08.371Z,4.18
2023-05-05T22:43:37.074Z,5.35
2023-05-05T22:46:05.873Z,4.90
2023-05-05T22:48:34.270Z,5.10
2023-05-05T22:51:03.606Z,5.22
2023-05-05T22:53:33.847Z,4.75
2023-05-05T22:56:02.879Z,5.13
2023-05-05T22:58:31.437Z,4.90
2023-05-05T23:00:59.833Z,5.20
2023-05-05T23:03:28.189Z,4.82
2023-05-05T23:05:57.003Z,4.63
2023-05-05T23:08:25.407Z,4.78
2023-05-05T23:10:55.264Z,4.68
2023-05-05T23:13:24.166Z,5.07
2023-05-05T23:15:54.796Z,5.18
2023-05-05T23:18:31.054Z,4.88
2023-05-05T23:20:59.318Z,5.50
2023-05-05T23:23:27.636Z,5.55
2023-05-05T23:25:57.254Z,5.65
2023-05-05T23:28:25.597Z,5.50
2023-05-05T23:30:54.262Z,5.43
2023-05-05T23:33:22.561Z,5.20
2023-05-05T23:35:50.930Z,5.30
2023-05-05T23:38:19.829Z,5.25
2023-05-05T23:40:48.545Z,5.28
2023-05-05T23:43:18.603Z,5.47
2023-05-05T23:45:46.759Z,5.47
2023-05-05T23:48:14.875Z,5.32
2023-05-05T23:50:43.513Z,5.15
2023-05-05T23:53:11.864Z,5.88
2023-05-05T23:55:40.073Z,5.55
2023-05-05T23:58:08.260Z,6.05
